Time;durP1;ratioP1;P1;durP2;ratioP2;P2;SDS_P1;SDS_P2;PMS_P1;PMS_P2;Temp;Humidity;BMP_temperature;BMP_pressure;BME280_temperature;BME280_humidity;BME280_pressure;Samples;Min_cycle;Max_cycle;Signal;HPM_P1;HPM_P2
2021/01/18 00:01:39;;;;;;;9.70;3.15;;;23.60;51.70;;;;;;4953035;29;20383;-55
2021/01/18 00:04:06;;;;;;;6.20;2.90;;;23.60;51.70;;;;;;4952976;29;20035;-54
2021/01/18 00:06:33;;;;;;;5.45;2.78;;;23.50;51.70;;;;;;4953297;28;20066;-55
2021/01/18 00:09:00;;;;;;;5.38;2.47;;;23.50;51.80;;;;;;4952423;28;20498;-55
2021/01/18 00:11:26;;;;;;;46.63;39.78;;;23.50;51.80;;;;;;4953142;28;20070;-56
2021/01/18 00:13:54;;;;;;;15.88;11.27;;;23.50;51.90;;;;;;4953445;28;20352;-55
2021/01/18 00:16:23;;;;;;;8.07;5.65;;;23.50;51.90;;;;;;4953176;29;20027;-56
2021/01/18 00:18:50;;;;;;;6.32;5.03;;;23.50;51.70;;;;;;4953166;29;20020;-56
2021/01/18 00:21:17;;;;;;;11.98;5.78;;;23.50;51.70;;;;;;4953086;28;20038;-56
2021/01/18 00:23:43;;;;;;;7.10;5.72;;;23.40;51.60;;;;;;4953328;28;20027;-56
2021/01/18 00:26:10;;;;;;;9.40;5.55;;;23.40;51.70;;;;;;4952846;28;20031;-56
2021/01/18 00:28:38;;;;;;;12.80;5.70;;;23.40;51.70;;;;;;4952940;29;20031;-56
2021/01/18 00:31:05;;;;;;;12.80;5.13;;;23.40;51.70;;;;;;4953246;28;20047;-56
2021/01/18 00:33:33;;;;;;;9.27;5.47;;;23.40;51.70;;;;;;4953020;28;20039;-56
2021/01/18 00:36:00;;;;;;;8.38;4.60;;;23.40;51.50;;;;;;4952535;29;20054;-56
2021/01/18 00:38:27;;;;;;;9.38;4.65;;;23.40;51.60;;;;;;4952826;29;20027;-55
2021/01/18 00:40:53;;;;;;;6.90;4.57;;;23.40;51.60;;;;;;4952851;29;20470;-56
2021/01/18 00:43:20;;;;;;;8.80;4.93;;;23.40;51.60;;;;;;4953041;29;20039;-56
2021/01/18 00:45:46;;;;;;;7.40;4.22;;;23.40;51.50;;;;;;4952829;29;20516;-55
2021/01/18 00:48:13;;;;;;;6.97;4.18;;;23.40;51.60;;;;;;4952761;29;20099;-56
2021/01/18 00:50:39;;;;;;;14.18;4.45;;;23.40;51.60;;;;;;4952170;29;20144;-55
2021/01/18 00:53:06;;;;;;;12.10;4.03;;;23.50;51.60;;;;;;4952243;29;20024;-54
2021/01/18 00:55:33;;;;;;;11.32;4.07;;;23.40;51.60;;;;;;4952418;29;20031;-55
2021/01/18 00:57:59;;;;;;;6.47;4.03;;;23.40;52.40;;;;;;4952674;28;20019;-56
2021/01/18 01:00:28;;;;;;;7.90;3.40;;;23.40;51.90;;;;;;4952280;28;20035;-55
2021/01/18 01:02:55;;;;;;;9.77;3.67;;;23.40;52.00;;;;;;4952448;29;20062;-55
2021/01/18 01:05:24;;;;;;;5.28;3.10;;;23.30;52.10;;;;;;4952734;28;20081;-55
2021/01/18 01:07:54;;;;;;;6.35;3.50;;;23.30;52.10;;;;;;4952352;28;20036;-55
2021/01/18 01:10:30;;;;;;;4.88;3.20;;;23.30;52.20;;;;;;4952686;29;20085;-55
2021/01/18 01:13:01;;;;;;;11.88;5.50;;;23.30;52.30;;;;;;4949756;28;20364;-55
2021/01/18 01:15:29;;;;;;;10.03;4.10;;;23.30;52.40;;;;;;4947509;28;20437;-55
2021/01/18 01:17:55;;;;;;;9.45;3.72;;;23.20;52.40;;;;;;4955403;29;20250;-55
2021/01/18 01:20:24;;;;;;;7.38;3.55;;;23.20;52.60;;;;;;4955601;29;20445;-55
2021/01/18 01:22:51;;;;;;;5.40;3.35;;;23.20;52.70;;;;;;4955695;28;20425;-55
2021/01/18 01:25:20;;;;;;;6.00;3.40;;;23.20;52.80;;;;;;4955689;29;20042;-55
2021/01/18 01:27:48;;;;;;;7.45;3.70;;;23.20;52.90;;;;;;4955619;28;20027;-55
2021/01/18 01:30:17;;;;;;;6.47;3.80;;;23.10;52.90;;;;;;4954970;29;20044;-56
2021/01/18 01:32:47;;;;;;;5.95;3.50;;;23.10;53.10;;;;;;4955130;28;20410;-55
2021/01/18 01:35:15;;;;;;;5.97;3.22;;;23.10;53.10;;;;;;4956331;29;20035;-56
2021/01/18 01:37:42;;;;;;;5.25;3.33;;;23.00;53.10;;;;;;4955664;28;20038;-55
2021/01/18 01:40:11;;;;;;;4.88;3.05;;;23.00;53.10;;;;;;4955416;28;20498;-55
2021/01/18 01:42:38;;;;;;;8.50;4.53;;;23.00;53.30;;;;;;4955462;29;20031;-55
2021/01/18 01:45:06;;;;;;;7.53;3.65;;;22.90;53.40;;;;;;4954732;28;20038;-55
2021/01/18 01:47:42;;;;;;;9.25;3.70;;;22.90;53.50;;;;;;4954097;28;20023;-55
2021/01/18 01:50:17;;;;;;;9.38;3.35;;;22.90;53.60;;;;;;4955287;29;20031;-55
2021/01/18 01:52:55;;;;;;;6.45;3.63;;;22.90;53.80;;;;;;4955523;28;20073;-56
2021/01/18 01:55:25;;;;;;;6.75;3.20;;;22.80;53.90;;;;;;4955255;29;20119;-55
2021/01/18 01:57:53;;;;;;;9.65;3.30;;;22.80;54.00;;;;;;4954756;28;20035;-55
2021/01/18 02:00:21;;;;;;;6.22;3.08;;;22.80;54.10;;;;;;4955169;29;20032;-55
2021/01/18 02:02:49;;;;;;;61.00;54.65;;;22.80;54.20;;;;;;4955071;29;20525;-55
2021/01/18 02:05:15;;;;;;;31.52;28.23;;;22.80;54.30;;;;;;4955087;29;20080;-55
2021/01/18 02:07:43;;;;;;;28.60;25.52;;;22.80;54.40;;;;;;4954887;29;20027;-54
2021/01/18 02:10:10;;;;;;;32.13;27.42;;;22.70;54.40;;;;;;4955497;29;20031;-55
2021/01/18 02:12:37;;;;;;;29.83;26.92;;;22.70;54.50;;;;;;4954776;28;20067;-56
2021/01/18 02:15:21;;;;;;;28.63;25.73;;;22.70;54.60;;;;;;4954923;29;20077;-56
2021/01/18 02:18:16;;;;;;;45.60;39.05;;;22.70;54.80;;;;;;4954881;29;20035;-56
2021/01/18 02:21:04;;;;;;;33.83;28.15;;;22.60;54.60;;;;;;4955244;28;20042;-56
2021/01/18 02:23:49;;;;;;;30.15;26.88;;;22.60;54.70;;;;;;4955026;29;20102;-57
2021/01/18 02:27:14;;;;;;;28.60;25.73;;;22.60;55.10;;;;;;4955722;28;20027;-56
2021/01/18 02:30:18;;;;;;;28.83;25.13;;;22.60;55.00;;;;;;4959452;28;20043;-56
2021/01/18 02:33:00;;;;;;;27.77;23.73;;;22.50;55.10;;;;;;4954900;29;20030;-56
2021/01/18 02:35:53;;;;;;;25.50;22.77;;;22.40;55.20;;;;;;4955237;29;20031;-55
2021/01/18 02:38:45;;;;;;;30.00;22.25;;;22.40;55.10;;;;;;4955169;29;20023;-55
2021/01/18 02:41:22;;;;;;;23.60;20.90;;;22.40;55.30;;;;;;4954898;29;20122;-56
2021/01/18 02:43:55;;;;;;;21.38;19.17;;;22.30;55.40;;;;;;4954188;28;20032;-56
2021/01/18 02:46:25;;;;;;;28.90;19.17;;;22.30;55.50;;;;;;4954420;29;20077;-56
2021/01/18 02:48:52;;;;;;;22.08;17.25;;;22.30;55.40;;;;;;4954140;29;20115;-56
2021/01/18 02:51:21;;;;;;;22.00;17.33;;;22.20;55.50;;;;;;4953608;28;20065;-57
2021/01/18 02:54:01;;;;;;;20.30;16.35;;;22.20;55.50;;;;;;4954438;28;20386;-56
2021/01/18 02:56:35;;;;;;;17.73;15.90;;;22.20;55.50;;;;;;4954263;29;20035;-56
2021/01/18 02:59:04;;;;;;;17.38;15.02;;;22.30;55.70;;;;;;4954356;29;20042;-56
2021/01/18 03:02:11;;;;;;;20.67;14.90;;;22.20;55.60;;;;;;4953943;28;20035;-56
2021/01/18 03:04:44;;;;;;;16.20;13.18;;;22.30;55.70;;;;;;4933179;29;20107;-54
2021/01/18 03:07:39;;;;;;;15.27;13.63;;;22.30;55.60;;;;;;4934433;29;20463;-56
2021/01/18 03:10:26;;;;;;;14.55;13.00;;;22.30;55.70;;;;;;4934952;29;20027;-57
2021/01/18 03:13:37;;;;;;;17.52;12.65;;;22.30;55.60;;;;;;4934981;29;20054;-57
2021/01/18 03:16:22;;;;;;;14.38;12.10;;;22.30;55.60;;;;;;4937432;28;20411;-55
2021/01/18 03:18:51;;;;;;;12.85;11.02;;;22.30;55.60;;;;;;4951359;29;20520;-55
2021/01/18 03:21:18;;;;;;;12.73;11.43;;;22.40;55.60;;;;;;4953402;28;20077;-55
2021/01/18 03:23:46;;;;;;;12.80;10.57;;;22.40;55.60;;;;;;4953929;28;20110;-55
2021/01/18 03:26:13;;;;;;;12.27;10.80;;;22.40;55.60;;;;;;4954403;28;20027;-55
2021/01/18 03:28:40;;;;;;;11.88;10.25;;;22.40;55.60;;;;;;4953802;28;20084;-57
2021/01/18 03:31:07;;;;;;;15.88;10.02;;;22.40;55.50;;;;;;4953953;28;20074;-56
2021/01/18 03:33:33;;;;;;;13.98;9.98;;;22.40;55.50;;;;;;4953688;29;20383;-56
2021/01/18 03:36:00;;;;;;;19.55;9.52;;;22.40;55.50;;;;;;4953690;28;20027;-56
2021/01/18 03:38:26;;;;;;;13.90;9.55;;;22.40;55.40;;;;;;4953704;29;20027;-56
2021/01/18 03:40:53;;;;;;;15.25;8.63;;;22.50;55.80;;;;;;4952768;28;20363;-56
2021/01/18 03:43:21;;;;;;;13.55;8.65;;;22.40;55.50;;;;;;4953324;28;20037;-56
2021/01/18 03:45:48;;;;;;;12.30;7.90;;;22.50;55.60;;;;;;4953112;28;20031;-55
2021/01/18 03:48:15;;;;;;;10.60;7.65;;;22.50;55.60;;;;;;4953306;28;20051;-55
2021/01/18 03:50:43;;;;;;;11.65;7.65;;;22.50;55.70;;;;;;4953626;28;20081;-56
2021/01/18 03:53:10;;;;;;;11.45;7.13;;;22.50;55.70;;;;;;4953603;28;20106;-56
2021/01/18 03:55:38;;;;;;;10.98;7.20;;;22.50;55.70;;;;;;4953477;28;20023;-56
2021/01/18 03:58:05;;;;;;;11.98;7.22;;;22.60;55.80;;;;;;4953402;28;20081;-55
2021/01/18 04:00:33;;;;;;;9.10;7.13;;;22.60;56.40;;;;;;4953285;28;20046;-55
2021/01/18 04:03:00;;;;;;;10.70;6.50;;;22.60;55.80;;;;;;4953057;29;20035;-56
2021/01/18 04:05:27;;;;;;;8.00;5.80;;;22.70;55.90;;;;;;4953329;28;20054;-56
2021/01/18 04:07:55;;;;;;;8.40;6.25;;;22.70;55.90;;;;;;4953074;28;20033;-56
2021/01/18 04:10:24;;;;;;;9.88;5.85;;;22.70;55.90;;;;;;4953183;28;20536;-56
2021/01/18 04:12:51;;;;;;;6.53;4.85;;;22.80;55.90;;;;;;4953028;29;20027;-55
2021/01/18 04:15:20;;;;;;;7.25;4.82;;;22.80;55.90;;;;;;4952643;29;20118;-56
2021/01/18 04:17:51;;;;;;;6.40;4.63;;;22.90;55.90;;;;;;4951802;28;20387;-56
2021/01/18 04:20:19;;;;;;;10.85;5.10;;;22.90;56.00;;;;;;4953194;29;20036;-56
2021/01/18 04:22:51;;;;;;;6.72;4.40;;;23.00;55.90;;;;;;4953351;28;20039;-56
2021/01/18 04:25:19;;;;;;;5.53;3.85;;;23.00;55.90;;;;;;4953187;28;20031;-56
2021/01/18 04:27:56;;;;;;;6.03;4.03;;;23.20;55.80;;;;;;4952793;28;20081;-55
2021/01/18 04:30:25;;;;;;;4.22;3.45;;;23.30;55.80;;;;;;4952240;29;20047;-56
2021/01/18 04:32:56;;;;;;;7.85;4.00;;;23.40;55.60;;;;;;4952929;28;20459;-56
2021/01/18 04:35:27;;;;;;;6.40;3.67;;;23.50;55.60;;;;;;4953168;28;20049;-57
2021/01/18 04:37:55;;;;;;;5.00;3.40;;;23.60;55.40;;;;;;4952872;28;20383;-58
2021/01/18 04:40:23;;;;;;;5.68;3.25;;;23.70;55.20;;;;;;4952940;28;20039;-56
2021/01/18 04:42:50;;;;;;;6.03;3.05;;;23.80;55.00;;;;;;4952605;28;20058;-56
2021/01/18 04:45:22;;;;;;;7.70;2.92;;;24.00;54.90;;;;;;4952384;29;20102;-56
2021/01/18 04:47:51;;;;;;;4.95;2.85;;;24.10;54.90;;;;;;4952771;29;20482;-56
2021/01/18 04:50:20;;;;;;;5.38;2.70;;;24.20;54.70;;;;;;4952511;28;20577;-56
2021/01/18 04:52:52;;;;;;;4.47;2.78;;;24.30;54.50;;;;;;4955378;29;20031;-57
2021/01/18 04:55:32;;;;;;;7.95;2.65;;;24.40;54.30;;;;;;4955982;28;20089;-56
2021/01/18 04:58:11;;;;;;;6.43;2.38;;;24.50;54.20;;;;;;4955739;28;20057;-56
2021/01/18 05:00:51;;;;;;;7.68;2.40;;;24.60;54.10;;;;;;4955808;29;20031;-56
2021/01/18 05:03:26;;;;;;;5.75;2.30;;;24.70;53.90;;;;;;4956078;29;20481;-56
2021/01/18 05:05:55;;;;;;;5.53;2.13;;;24.70;53.70;;;;;;4956150;28;20032;-56
2021/01/18 05:08:52;;;;;;;4.50;2.20;;;24.80;53.60;;;;;;4955497;28;20038;-57
2021/01/18 05:11:18;;;;;;;4.68;2.00;;;24.80;53.30;;;;;;4955865;29;20050;-56
2021/01/18 05:13:45;;;;;;;3.90;2.35;;;24.90;53.30;;;;;;4955596;29;20031;-56
2021/01/18 05:16:12;;;;;;;2.97;2.10;;;25.00;53.10;;;;;;4955307;28;20023;-56
2021/01/18 05:18:42;;;;;;;3.97;2.17;;;25.00;53.10;;;;;;4955827;29;20058;-55
2021/01/18 05:21:10;;;;;;;4.00;1.92;;;25.10;52.90;;;;;;4955853;28;20500;-56
2021/01/18 05:23:45;;;;;;;3.53;2.00;;;25.10;52.80;;;;;;4955819;29;20031;-57
2021/01/18 05:26:21;;;;;;;4.65;2.20;;;25.10;52.70;;;;;;4955472;28;20046;-56
2021/01/18 05:28:50;;;;;;;4.93;2.03;;;25.20;52.60;;;;;;4955978;29;20113;-56
2021/01/18 05:31:28;;;;;;;4.30;2.15;;;25.20;52.40;;;;;;4955784;28;20428;-56
2021/01/18 05:33:55;;;;;;;7.43;1.80;;;25.30;52.40;;;;;;4955579;29;20036;-56
2021/01/18 05:36:40;;;;;;;4.63;1.73;;;25.20;52.20;;;;;;4955475;28;20027;-56
2021/01/18 05:39:33;;;;;;;10.25;1.77;;;25.20;52.10;;;;;;4955742;29;20073;-56
2021/01/18 05:42:00;;;;;;;2.33;1.55;;;25.20;52.00;;;;;;4955473;28;20486;-56
2021/01/18 05:44:35;;;;;;;3.40;1.70;;;25.20;51.80;;;;;;4955767;29;20081;-57
2021/01/18 05:47:06;;;;;;;3.13;1.58;;;25.10;51.70;;;;;;4955381;29;20120;-55
2021/01/18 05:49:42;;;;;;;2.97;1.60;;;25.10;51.70;;;;;;4955707;28;20031;-55
2021/01/18 05:52:29;;;;;;;6.72;1.90;;;25.10;51.70;;;;;;4955223;29;20062;-55
2021/01/18 05:55:17;;;;;;;3.55;1.40;;;25.10;51.80;;;;;;4955557;29;20471;-55
2021/01/18 05:57:56;;;;;;;3.22;1.60;;;25.10;51.70;;;;;;4955527;29;20077;-56
2021/01/18 06:00:45;;;;;;;3.63;1.50;;;25.00;51.60;;;;;;4955227;28;20126;-56
2021/01/18 06:03:12;;;;;;;2.22;1.45;;;24.90;51.60;;;;;;4955093;28;20062;-56
2021/01/18 06:05:40;;;;;;;2.70;1.50;;;24.90;51.60;;;;;;4954993;29;20110;-56
2021/01/18 06:08:27;;;;;;;3.40;1.52;;;24.90;51.50;;;;;;4955256;28;20028;-56
2021/01/18 06:11:01;;;;;;;3.30;1.38;;;24.80;51.60;;;;;;4954938;28;20031;-56
2021/01/18 06:13:32;;;;;;;2.15;1.50;;;24.80;51.50;;;;;;4954874;29;20110;-57
2021/01/18 06:16:09;;;;;;;2.95;1.30;;;24.70;51.50;;;;;;4955246;29;20023;-56
2021/01/18 06:18:37;;;;;;;4.15;1.40;;;24.70;51.50;;;;;;4954761;28;20387;-56
2021/01/18 06:21:06;;;;;;;2.95;1.50;;;24.70;51.50;;;;;;4954845;29;20031;-58
2021/01/18 06:23:33;;;;;;;1.73;1.13;;;24.60;51.50;;;;;;4954804;29;20031;-57
2021/01/18 06:26:00;;;;;;;2.08;1.40;;;24.60;51.60;;;;;;4954805;28;20035;-58
2021/01/18 06:28:34;;;;;;;4.80;1.50;;;24.50;51.70;;;;;;4954724;29;20035;-58
2021/01/18 06:31:06;;;;;;;2.80;1.30;;;24.50;51.80;;;;;;4954444;28;20102;-57
